createdAt,value
2019-04-03T00:01:04.135Z,8.60
2019-04-03T00:03:34.241Z,13.18
2019-04-03T00:06:06.056Z,10.18
2019-04-03T00:08:37.075Z,10.32
2019-04-03T00:11:09.491Z,12.10
2019-04-03T00:13:42.228Z,9.90
2019-04-03T00:16:12.092Z,7.62
2019-04-03T00:18:42.743Z,11.93
2019-04-03T00:21:13.390Z,7.50
2019-04-03T00:26:13.878Z,12.03
2019-04-03T00:31:14.240Z,9.70
2019-04-03T00:33:44.911Z,11.75
2019-04-03T00:36:15.689Z,7.90
2019-04-03T00:38:46.314Z,9.38
2019-04-03T00:43:46.679Z,9.10
2019-04-03T00:46:17.232Z,9.58
2019-04-03T00:48:47.799Z,8.20
2019-04-03T00:53:48.519Z,9.63
2019-04-03T00:58:48.898Z,11.10
2019-04-03T01:01:19.624Z,7.22
2019-04-03T01:03:50.278Z,12.68
2019-04-03T01:06:21.009Z,10.15
2019-04-03T01:08:51.781Z,7.62
2019-04-03T01:11:22.025Z,10.23
2019-04-03T01:13:52.760Z,10.03
2019-04-03T01:16:23.536Z,7.70
2019-04-03T01:18:54.179Z,7.50
2019-04-03T01:23:54.750Z,10.70
2019-04-03T01:26:25.509Z,8.58
2019-04-03T01:31:27.234Z,9.13
2019-04-03T01:33:57.767Z,11.20
2019-04-03T01:36:28.543Z,11.90
2019-04-03T01:38:59.394Z,7.03
2019-04-03T01:41:29.930Z,9.30
2019-04-03T01:46:30.514Z,9.75
2019-04-03T01:51:31.002Z,9.38
2019-04-03T01:56:33.846Z,9.60
2019-04-03T01:59:06.654Z,10.53
2019-04-03T02:01:38.715Z,11.85
2019-04-03T02:04:12.110Z,14.83
2019-04-03T02:06:43.125Z,14.80
2019-04-03T02:09:15.596Z,18.73
2019-04-03T02:11:47.604Z,15.40
2019-04-03T02:14:21.278Z,10.70
2019-04-03T02:16:53.203Z,11.70
2019-04-03T02:19:25.738Z,9.90
2019-04-03T02:21:54.585Z,10.03
2019-04-03T02:26:55.172Z,11.75
2019-04-03T02:29:26.884Z,13.15
2019-04-03T02:31:57.704Z,10.90
2019-04-03T02:34:28.356Z,10.95
2019-04-03T02:36:59.418Z,10.75
2019-04-03T02:39:30.173Z,10.25
2019-04-03T02:42:00.819Z,11.15
2019-04-03T02:44:31.474Z,13.18
2019-04-03T02:47:02.208Z,14.43
2019-04-03T02:49:32.968Z,15.05
2019-04-03T02:52:03.734Z,13.18
2019-04-03T02:54:35.499Z,17.77
2019-04-03T02:57:07.017Z,21.07
2019-04-03T02:59:38.044Z,15.78
2019-04-03T03:04:39.867Z,23.32
2019-04-03T03:07:10.610Z,24.27
2019-04-03T03:09:45.675Z,20.92
2019-04-03T03:12:13.538Z,24.85
2019-04-03T03:14:44.204Z,27.48
2019-04-03T03:17:15.058Z,23.62
2019-04-03T03:19:46.099Z,41.95
2019-04-03T03:22:18.082Z,27.90
2019-04-03T03:24:49.876Z,23.15
2019-04-03T03:27:20.713Z,23.45
2019-04-03T03:29:52.506Z,27.95
2019-04-03T03:32:31.366Z,21.85
2019-04-03T03:35:07.611Z,18.80
2019-04-03T03:37:27.856Z,24.02
2019-04-03T03:39:58.591Z,20.08
2019-04-03T03:45:01.580Z,24.82
2019-04-03T03:47:35.101Z,28.67
2019-04-03T03:50:07.400Z,25.97
2019-04-03T03:52:38.648Z,32.13
2019-04-03T03:55:09.454Z,25.20
2019-04-03T03:57:40.568Z,26.17
2019-04-03T04:00:11.371Z,18.40
2019-04-03T04:02:44.566Z,21.20
2019-04-03T04:05:14.341Z,21.93
2019-04-03T04:07:45.366Z,15.25
2019-04-03T04:10:16.415Z,16.07
2019-04-03T04:12:47.587Z,18.15
2019-04-03T04:15:18.453Z,19.73
2019-04-03T04:17:51.318Z,18.35
2019-04-03T04:20:22.132Z,16.97
2019-04-03T04:22:53.112Z,16.27
2019-04-03T04:25:23.904Z,13.80
2019-04-03T04:27:54.674Z,12.70
2019-04-03T04:30:26.231Z,18.75
2019-04-03T04:32:57.100Z,20.35
2019-04-03T04:35:27.959Z,14.40
2019-04-03T04:37:58.793Z,22.82
2019-04-03T04:40:31.312Z,17.25
2019-04-03T04:43:03.764Z,15.70
2019-04-03T04:45:33.961Z,18.12
2019-04-03T04:48:04.705Z,18.40
2019-04-03T04:50:35.457Z,24.18
2019-04-03T04:53:06.098Z,18.92
2019-04-03T04:58:06.869Z,20.57
2019-04-03T05:03:07.825Z,19.98
2019-04-03T05:05:38.520Z,23.57
2019-04-03T05:08:09.270Z,18.57
2019-04-03T05:10:40.042Z,11.88
2019-04-03T05:13:10.797Z,10.45
2019-04-03T05:15:41.717Z,11.35
2019-04-03T05:18:12.609Z,10.78
2019-04-03T05:20:43.345Z,8.80
2019-04-03T05:25:44.037Z,13.57
2019-04-03T05:28:14.501Z,10.90
2019-04-03T05:30:46.381Z,11.90
2019-04-03T05:33:17.183Z,9.85
2019-04-03T05:35:47.888Z,9.78
2019-04-03T05:40:48.382Z,8.83
2019-04-03T05:45:48.804Z,5.17
2019-04-03T05:48:19.411Z,9.95
2019-04-03T05:53:20.246Z,8.48
2019-04-03T05:55:50.837Z,12.20
2019-04-03T05:58:21.927Z,7.33
2019-04-03T06:01:03.639Z,10.63
2019-04-03T06:03:37.562Z,7.65
2019-04-03T06:05:58.059Z,7.87
2019-04-03T06:08:28.487Z,6.65
2019-04-03T06:13:28.787Z,8.98
2019-04-03T06:18:31.671Z,9.48
2019-04-03T06:21:01.659Z,7.45
2019-04-03T06:23:32.314Z,4.42
2019-04-03T06:31:04.983Z,4.67
2019-04-03T06:33:37.154Z,5.30
2019-04-03T06:36:07.604Z,7.47
2019-04-03T06:38:38.351Z,5.47
2019-04-03T06:41:09.252Z,4.53
2019-04-03T06:43:40.180Z,3.02
2019-04-03T06:48:40.983Z,2.87
2019-04-03T06:51:11.651Z,4.90
2019-04-03T06:53:42.443Z,7.85
2019-04-03T06:56:13.030Z,3.55
2019-04-03T07:01:14.948Z,6.20
2019-04-03T07:06:15.417Z,3.02
2019-04-03T07:08:47.600Z,3.25
2019-04-03T07:11:23.539Z,5.17
2019-04-03T07:13:49.942Z,6.37
2019-04-03T07:18:50.311Z,2.97
2019-04-03T07:21:22.818Z,3.75
2019-04-03T07:23:53.892Z,4.47
2019-04-03T07:28:54.770Z,4.05
2019-04-03T07:33:58.158Z,3.70
2019-04-03T07:36:28.551Z,11.93
2019-04-03T07:38:59.327Z,7.53
2019-04-03T07:41:29.975Z,3.42
2019-04-03T07:46:32.855Z,9.95
2019-04-03T07:49:02.522Z,1.45
2019-04-03T07:54:04.751Z,2.70
2019-04-03T07:56:35.194Z,3.60
2019-04-03T08:01:35.899Z,13.60
2019-04-03T08:04:06.596Z,4.95
2019-04-03T08:06:37.289Z,8.70
2019-04-03T08:11:39.941Z,3.33
2019-04-03T08:14:10.590Z,4.08
2019-04-03T08:16:42.676Z,3.77
2019-04-03T08:19:13.282Z,4.35
2019-04-03T08:21:43.981Z,6.92
2019-04-03T08:26:44.955Z,1.07
2019-04-03T08:29:15.426Z,2.30
2019-04-03T08:34:18.699Z,2.87
2019-04-03T08:36:49.214Z,6.15
2019-04-03T08:41:50.009Z,9.33
2019-04-03T08:46:50.970Z,14.25
2019-04-03T08:49:21.433Z,10.10
2019-04-03T08:51:52.387Z,3.83
2019-04-03T08:54:23.069Z,3.87
2019-04-03T08:56:53.717Z,3.70
2019-04-03T09:01:56.011Z,3.00
2019-04-03T09:04:26.368Z,5.22
2019-04-03T09:06:57.040Z,6.22
2019-04-03T09:09:29.893Z,2.33
2019-04-03T09:11:59.649Z,2.87
2019-04-03T09:17:02.269Z,3.43
2019-04-03T09:19:32.607Z,2.70
2019-04-03T09:22:03.380Z,3.95
2019-04-03T09:24:33.929Z,3.52
2019-04-03T09:29:35.318Z,3.65
2019-04-03T09:32:06.856Z,6.20
2019-04-03T09:34:37.271Z,13.25
2019-04-03T09:37:08.023Z,4.87
2019-04-03T09:39:39.081Z,8.78
2019-04-03T09:42:09.738Z,2.85
2019-04-03T09:44:40.810Z,4.05
2019-04-03T09:47:14.294Z,4.62
2019-04-03T09:49:45.474Z,7.05
2019-04-03T09:52:16.149Z,5.78
2019-04-03T09:54:46.777Z,8.68
2019-04-03T09:57:17.308Z,2.80
2019-04-03T10:02:19.602Z,6.17
2019-04-03T10:04:52.146Z,7.65
2019-04-03T10:07:22.982Z,4.45
2019-04-03T10:09:54.531Z,6.25
2019-04-03T10:12:25.223Z,2.65
2019-04-03T10:17:25.709Z,2.50
2019-04-03T10:19:56.707Z,5.87
2019-04-03T10:22:27.521Z,2.90
2019-04-03T10:27:29.217Z,5.40
2019-04-03T10:35:02.440Z,8.35
2019-04-03T10:37:35.932Z,9.83
2019-04-03T10:40:07.576Z,28.32
2019-04-03T10:42:38.097Z,25.32
2019-04-03T10:45:11.013Z,11.63
2019-04-03T10:47:44.183Z,9.93
2019-04-03T10:50:14.108Z,10.43
2019-04-03T10:52:47.677Z,6.40
2019-04-03T10:55:17.040Z,1.95
2019-04-03T10:57:47.365Z,3.10
2019-04-03T11:02:48.702Z,3.15
2019-04-03T11:05:19.404Z,3.80
2019-04-03T11:07:50.255Z,3.62
2019-04-03T11:10:23.356Z,9.90
2019-04-03T11:12:53.030Z,12.78
2019-04-03T11:15:23.991Z,9.40
2019-04-03T11:17:54.877Z,10.08
2019-04-03T11:20:25.599Z,3.90
2019-04-03T11:23:05.391Z,3.27
2019-04-03T11:25:28.844Z,4.35
2019-04-03T11:27:59.803Z,4.90
2019-04-03T11:30:30.659Z,3.55
2019-04-03T11:33:02.693Z,4.22
2019-04-03T11:35:33.939Z,9.73
2019-04-03T11:38:13.183Z,5.08
2019-04-03T11:40:36.850Z,4.80
2019-04-03T11:43:07.808Z,9.28
2019-04-03T11:45:38.582Z,5.80
2019-04-03T11:48:09.212Z,12.33
2019-04-03T11:50:40.269Z,2.72
2019-04-03T11:53:12.762Z,9.35
2019-04-03T11:55:43.236Z,15.45
2019-04-03T11:58:13.967Z,4.50
2019-04-03T12:00:46.456Z,5.72
2019-04-03T12:03:17.669Z,5.05
2019-04-03T12:05:48.367Z,2.70
2019-04-03T12:08:19.625Z,8.03
2019-04-03T12:10:50.395Z,8.80
2019-04-03T12:13:22.844Z,5.97
2019-04-03T12:15:56.207Z,5.85
2019-04-03T12:18:25.723Z,3.33
2019-04-03T12:20:56.659Z,2.95
2019-04-03T12:23:27.823Z,14.98
2019-04-03T12:25:58.699Z,5.25
2019-04-03T12:28:29.488Z,9.88
2019-04-03T12:31:00.341Z,4.65
2019-04-03T12:33:31.461Z,5.50
2019-04-03T12:36:02.130Z,4.72
2019-04-03T12:38:33.056Z,7.08
2019-04-03T12:41:04.972Z,4.80
2019-04-03T12:43:36.179Z,14.35
2019-04-03T12:46:07.323Z,7.50
2019-04-03T12:48:38.148Z,3.45
2019-04-03T12:51:09.063Z,8.18
2019-04-03T12:53:39.648Z,5.67
2019-04-03T12:56:10.807Z,14.73
2019-04-03T12:58:42.008Z,6.05
2019-04-03T13:01:12.730Z,9.43
2019-04-03T13:03:44.001Z,12.07
2019-04-03T13:06:14.927Z,4.42
2019-04-03T13:08:46.307Z,5.03
2019-04-03T13:11:18.593Z,2.83
2019-04-03T13:13:49.304Z,1.90
2019-04-03T13:16:22.365Z,1.15
2019-04-03T13:18:52.195Z,4.80
2019-04-03T13:21:22.849Z,6.60
2019-04-03T13:26:24.760Z,3.83
2019-04-03T13:28:55.708Z,4.58
2019-04-03T13:31:26.482Z,8.85
2019-04-03T13:33:58.038Z,7.80
2019-04-03T13:36:32.474Z,3.08
2019-04-03T13:39:01.643Z,8.80
2019-04-03T13:41:34.709Z,5.15
2019-04-03T13:44:04.748Z,5.03
2019-04-03T13:46:36.516Z,3.80
2019-04-03T13:49:08.305Z,3.47
2019-04-03T13:51:39.558Z,5.20
2019-04-03T13:54:10.465Z,4.95
2019-04-03T13:56:43.158Z,3.12
2019-04-03T13:59:13.259Z,5.12
2019-04-03T14:01:44.158Z,3.17
2019-04-03T14:04:15.075Z,3.80
2019-04-03T14:06:46.177Z,4.12
2019-04-03T14:09:17.604Z,6.37
2019-04-03T14:11:48.244Z,6.55
2019-04-03T14:16:48.875Z,15.53
2019-04-03T14:19:19.902Z,4.97
2019-04-03T14:21:50.760Z,2.45
2019-04-03T14:24:21.535Z,5.70
2019-04-03T14:26:51.946Z,13.48
2019-04-03T14:29:22.799Z,6.47
2019-04-03T14:31:54.038Z,4.47
2019-04-03T14:34:29.279Z,7.72
2019-04-03T14:36:58.368Z,11.97
2019-04-03T14:39:29.679Z,7.17
2019-04-03T14:42:01.292Z,4.72
2019-04-03T14:44:32.128Z,3.40
2019-04-03T14:47:02.799Z,3.02
2019-04-03T14:52:04.143Z,6.00
2019-04-03T14:54:34.855Z,5.80
2019-04-03T14:57:13.194Z,8.95
2019-04-03T14:59:37.557Z,6.33
2019-04-03T15:02:08.344Z,4.17
2019-04-03T15:04:39.363Z,7.40
2019-04-03T15:07:10.329Z,5.72
2019-04-03T15:09:41.324Z,5.80
2019-04-03T15:12:12.957Z,5.33
2019-04-03T15:14:43.426Z,8.58
2019-04-03T15:19:45.313Z,3.67
2019-04-03T15:22:15.890Z,9.15
2019-04-03T15:27:16.868Z,6.37
2019-04-03T15:29:47.441Z,6.35
2019-04-03T15:32:19.826Z,6.40
2019-04-03T15:34:51.317Z,10.88
2019-04-03T15:37:22.172Z,7.65
2019-04-03T15:39:56.930Z,8.23
2019-04-03T15:42:24.808Z,9.10
2019-04-03T15:47:35.280Z,8.95
2019-04-03T15:49:59.973Z,5.87
2019-04-03T15:52:30.770Z,6.17
2019-04-03T15:57:33.087Z,12.45
2019-04-03T16:00:06.503Z,13.75
2019-04-03T16:02:37.365Z,16.97
2019-04-03T16:05:08.503Z,10.82
2019-04-03T16:07:41.454Z,14.83
2019-04-03T16:10:11.748Z,16.55
2019-04-03T16:12:43.499Z,20.00
2019-04-03T16:15:15.423Z,31.60
2019-04-03T16:17:45.774Z,24.02
2019-04-03T16:22:48.231Z,11.15
2019-04-03T16:25:18.977Z,13.20
2019-04-03T16:27:49.806Z,16.67
2019-04-03T16:30:20.639Z,18.42
2019-04-03T16:32:52.242Z,14.35
2019-04-03T16:35:24.305Z,15.70
2019-04-03T16:37:56.664Z,15.23
2019-04-03T16:40:27.258Z,16.37
2019-04-03T16:42:57.811Z,21.93
2019-04-03T16:47:58.601Z,31.42
2019-04-03T16:52:59.515Z,30.45
2019-04-03T16:55:30.044Z,27.77
2019-04-03T16:58:01.019Z,28.02
2019-04-03T17:00:31.658Z,26.48
2019-04-03T17:05:32.856Z,58.83
2019-04-03T17:10:33.459Z,105.43
2019-04-03T17:15:35.383Z,39.18
2019-04-03T17:18:06.234Z,44.67
2019-04-03T17:23:07.727Z,50.83
2019-04-03T17:25:47.620Z,194.82
2019-04-03T17:28:11.807Z,115.90
2019-04-03T17:30:45.877Z,91.17
2019-04-03T17:33:16.978Z,55.95
2019-04-03T17:35:48.438Z,64.77
2019-04-03T17:38:21.961Z,32.93
2019-04-03T17:40:52.838Z,44.90
2019-04-03T17:43:23.589Z,31.00
2019-04-03T17:48:24.801Z,36.95
2019-04-03T17:50:55.733Z,25.70
2019-04-03T17:53:26.382Z,35.63
2019-04-03T17:58:26.869Z,86.67
2019-04-03T18:00:57.726Z,88.67
2019-04-03T18:03:28.071Z,114.30
2019-04-03T18:08:28.761Z,251.35
2019-04-03T18:10:59.573Z,237.12
2019-04-03T18:13:30.496Z,257.70
2019-04-03T18:16:01.245Z,232.32
2019-04-03T18:18:33.497Z,176.97
2019-04-03T18:21:04.180Z,223.70
2019-04-03T18:23:35.056Z,165.47
2019-04-03T18:26:05.878Z,140.25
2019-04-03T18:28:36.647Z,101.67
2019-04-03T18:31:07.449Z,101.92
2019-04-03T18:33:38.259Z,194.13
2019-04-03T18:36:10.042Z,268.90
2019-04-03T18:38:40.995Z,240.05
2019-04-03T18:41:11.728Z,175.10
2019-04-03T18:43:43.505Z,138.85
2019-04-03T18:48:53.176Z,101.20
2019-04-03T18:51:16.073Z,114.15
2019-04-03T18:53:46.897Z,101.25
2019-04-03T18:58:47.224Z,131.72
2019-04-03T19:03:47.916Z,139.52
2019-04-03T19:08:50.130Z,71.05
2019-04-03T19:11:20.567Z,89.05
2019-04-03T19:16:29.323Z,107.78
2019-04-03T19:18:53.256Z,163.12
2019-04-03T19:21:28.270Z,140.82
2019-04-03T19:23:56.299Z,109.67
2019-04-03T19:26:30.048Z,103.97
2019-04-03T19:29:00.770Z,97.95
2019-04-03T19:31:31.551Z,81.25
2019-04-03T19:36:33.037Z,48.08
2019-04-03T19:39:06.636Z,71.25
2019-04-03T19:41:37.489Z,82.00
2019-04-03T19:46:37.975Z,107.47
2019-04-03T19:49:08.746Z,106.52
2019-04-03T19:51:39.626Z,132.37
2019-04-03T19:54:10.473Z,155.27
2019-04-03T19:56:41.214Z,177.30
2019-04-03T19:59:11.868Z,221.43
2019-04-03T20:01:42.718Z,212.30
2019-04-03T20:04:15.680Z,201.35
2019-04-03T20:06:45.555Z,198.05
2019-04-03T20:09:17.799Z,191.37
2019-04-03T20:11:48.598Z,173.13
2019-04-03T20:14:19.333Z,174.07
2019-04-03T20:16:50.107Z,90.80
2019-04-03T20:19:21.455Z,72.42
2019-04-03T20:21:52.021Z,91.97
2019-04-03T20:24:25.043Z,113.28
2019-04-03T20:26:54.862Z,108.40
2019-04-03T20:29:27.523Z,119.25
2019-04-03T20:31:58.208Z,149.45
2019-04-03T20:34:28.964Z,131.03
2019-04-03T20:37:00.515Z,128.10
2019-04-03T20:39:33.792Z,138.22
2019-04-03T20:42:03.665Z,121.25
2019-04-03T20:44:38.556Z,125.40
2019-04-03T20:47:07.725Z,98.75
2019-04-03T20:49:38.599Z,119.17
2019-04-03T20:52:11.511Z,97.97
2019-04-03T20:54:41.842Z,77.92
2019-04-03T20:57:13.553Z,77.62
2019-04-03T20:59:57.691Z,69.67
2019-04-03T21:02:16.757Z,83.97
2019-04-03T21:04:47.418Z,64.00
2019-04-03T21:07:18.269Z,69.25
2019-04-03T21:09:49.108Z,76.95
2019-04-03T21:12:19.879Z,65.03
2019-04-03T21:17:20.467Z,38.67
2019-04-03T21:22:22.488Z,26.75
2019-04-03T21:24:53.124Z,25.85
2019-04-03T21:29:53.812Z,45.75
2019-04-03T21:34:54.428Z,35.48
2019-04-03T21:37:25.985Z,28.00
2019-04-03T21:39:56.925Z,28.95
2019-04-03T21:42:27.800Z,25.65
2019-04-03T21:44:58.663Z,22.30
2019-04-03T21:47:29.292Z,20.52
2019-04-03T21:50:00.045Z,31.25
2019-04-03T21:52:30.695Z,19.15
2019-04-03T21:55:04.602Z,19.27
2019-04-03T21:57:34.061Z,17.37
2019-04-03T22:00:09.111Z,19.27
2019-04-03T22:02:39.968Z,38.42
2019-04-03T22:05:10.517Z,41.65
2019-04-03T22:07:41.372Z,21.85
2019-04-03T22:10:12.125Z,23.35
2019-04-03T22:12:42.800Z,23.73
2019-04-03T22:15:14.511Z,14.75
2019-04-03T22:17:45.193Z,16.77
2019-04-03T22:20:16.061Z,17.82
2019-04-03T22:22:46.814Z,25.62
2019-04-03T22:25:17.463Z,20.12
2019-04-03T22:27:48.202Z,15.08
2019-04-03T22:30:19.999Z,21.27
2019-04-03T22:32:51.141Z,14.50
2019-04-03T22:35:21.913Z,16.57
2019-04-03T22:37:54.893Z,14.38
2019-04-03T22:40:25.655Z,15.20
2019-04-03T22:43:02.338Z,14.25
2019-04-03T22:45:32.904Z,15.80
2019-04-03T22:48:03.761Z,19.20
2019-04-03T22:50:35.336Z,17.95
2019-04-03T22:53:06.296Z,17.32
2019-04-03T22:55:38.160Z,21.02
2019-04-03T22:58:08.926Z,17.98
2019-04-03T23:00:39.680Z,20.35
2019-04-03T23:03:10.209Z,22.00
2019-04-03T23:05:41.082Z,32.08
2019-04-03T23:08:12.044Z,50.70
2019-04-03T23:10:42.680Z,73.57
2019-04-03T23:15:43.265Z,50.08
2019-04-03T23:18:15.883Z,51.13
2019-04-03T23:20:46.201Z,49.38
2019-04-03T23:23:17.074Z,40.98
2019-04-03T23:25:47.830Z,55.65
2019-04-03T23:28:18.481Z,41.88
2019-04-03T23:30:49.356Z,41.92
2019-04-03T23:33:19.970Z,38.05
2019-04-03T23:35:51.135Z,67.15
2019-04-03T23:38:22.216Z,79.35
2019-04-03T23:40:52.948Z,90.80
2019-04-03T23:43:24.639Z,48.90
2019-04-03T23:45:55.498Z,42.88
2019-04-03T23:48:26.150Z,50.38
2019-04-03T23:50:57.004Z,47.10
2019-04-03T23:53:27.756Z,43.98
2019-04-03T23:55:58.493Z,38.88
2019-04-03T23:58:29.044Z,37.98
